SBGLTNCC

Guest
Details From SBGL - Galeão Antonio Carlos Jombim
To TNCC - Curacao Hato
Flight Number -
Tags Generated
Created
Modified
Stats Distance 2,590 nm / 4,797 km
Max Altitude 0 ft / 0 m
Waypoints 4
Social Downloads 2
Likes 0
Share VATSIM

Download

Looking for another format? Having issues loading an existing format? Contact us
Advertisement - Login to hide

Notes

Generated

Route

SBGL PAJEM R2370 TNCC

ID Type Via Altitude Latitude Longitude Leg Dist Tot Dist Heading (true) Name
O SBGL APT - 0 ft / 0 m -22.81244˚ -43.26360˚ - 0 nm - -
PAJEM FIX - 0 ft / 0 m -16.24183˚ -48.59883˚ 496 nm 496 nm 322° / 323° -
R2370 FIX - 0 ft / 0 m 12.19052˚ -68.96769˚ 2092 nm 2589 nm 323° / 324° -
O TNCC APT - 0 ft / 0 m 12.19211˚ -68.97514˚ 0 nm 2589 nm 282° / 282° -

Altitude Profile

Advertisement - Login to hide

Weather


0- 5 10 15 20 25 30 35+ Temperature / ° C

Clouds and Precipitation
Forecast for 2018-05-23 12:00 UTC. Updated 2 minutes ago

Ground ~20,000 ft ~40,000 ft Winds

SBGL

Details ICAO SBGL (GIG)
Name Galeao Antonio Carlos Jombim
Region Brazil
Timezone America/Sao_Paulo (UTC-3.0)
Stats Elevation 28 ft / 9 m (AMSL)
Location -22.808938° -43.243681°
Runways 2
Magnetic Variation 22.811° W

METAR

SBGL 230900Z 33004KT 5000 BR FEW013 17/15 Q1019

Decode

TAF

TAF SBGL 230240Z 2306/2412 33005KT 7000 FEW020 TN17/2309Z TX27/2316Z BECMG 2306/2309 27005KT 4000 BR BECMG 2309/2312 24005KT 7000 NSW BECMG 2312/231422007KT BECMG 2314/2316 20010KT BECMG 2316/2318 18010KT BECMG 2319/2321 16007KT BECMG 2402/2404 34005KT RMK PGW

Decode

Departure Runways

ID Width Length Bearing (true) Bearing (mag) Surface Threshold Offset Overrun Length
10 148 ft / 45 m 13,128 ft / 4,001 m 74.39° 97.20° Concrete 0 ft / 0 m 175 ft / 53 m
15 154 ft / 47 m 10,418 ft / 3,175 m 125.78° 148.59° Asphalt 0 ft / 0 m 185 ft / 56 m
28 148 ft / 45 m 13,128 ft / 4,001 m 254.38° 277.19° Concrete 0 ft / 0 m 175 ft / 53 m
33 154 ft / 47 m 10,418 ft / 3,175 m 305.78° 328.59° Asphalt 0 ft / 0 m 185 ft / 56 m

TNCC

Details ICAO TNCC (CUR)
Name Curacao Hato
Region Caribbean Netherlands, Aruba, Curaçao, Sint Maarten
Timezone Unknown (UTC+0.0)
Stats Elevation 29 ft / 9 m (AMSL)
Location 12.188853° -68.959803°
Runways 1
Magnetic Variation 11.372° W

METAR

TNCC 230900Z AUTO 11015KT 9999 SCT024 27/22 Q1013 NOSIG

Decode

TAF

Not found

Destination Runways

ID Width Length Bearing (true) Bearing (mag) Surface Threshold Offset Overrun Length
11 197 ft / 60 m 11,197 ft / 3,413 m 102.24° 113.61° Asphalt 300 ft / 91 m 0 ft / 0 m
29 197 ft / 60 m 11,197 ft / 3,413 m 282.24° 293.61° Asphalt 300 ft / 91 m 200 ft / 61 m

Approach Navaids

Runway Type Ident Frequency Range Bearing (true) Bearing (mag) Slope Elevation
11 Localiser IATO 111.90 MHz 18 nm / 33 km 102.23° 113.60° - 29 ft / 9 m (AMSL)
11 Glidescope IATO 111.90 MHz 10 nm / 19 km 102.24° 113.61° 3.00° 29 ft / 9 m (AMSL)
11 DME IATO 111.90 MHz 18 nm / 33 km - - - 29 ft / 9 m (AMSL)